Aérodrome :
LOGIN :

S'inscrire | Disclaimer

   EN    FR    IT 

 










Légende :    VFR   VFR Marginal   IFR   IFR Intensif   IFR Très Intensif
Visi : 
Plafond : 
>= 8 km
>= 3000ft
5 à 8 km
1000 à 3000 ft
1500m à 5 km
500 à 1000 ft
800 à 1500m
200 à 500 ft
< 800m
< 200 ft
Symboles :   Orages  Brouillard  Fortes neiges  Fortes précipitations  Vent > 20 kt
SIGMETs :   Divers  Orages  Givrage  Turbulence  Onde Orograph.  Cendres Volcan.






- Altitude de l'aérodrome : 157 ft
- Code IATA : LIL


LFQQ - Lille Lesquin

DERNIER METAR :
  • 221430Z AUTO 16004KT 100V260 CAVOK 23/12 Q1012 BECMG SCT080CB

METARs EXPIRÉS :
  • 221400Z AUTO 15004KT 070V190 CAVOK 23/11 Q1012 BECMG SCT080CB
  • 221330Z AUTO 14004KT 060V220 CAVOK 23/12 Q1013 BECMG SCT080CB
  • 221300Z AUTO 13005KT 060V220 CAVOK 23/12 Q1013 BECMG SCT080CB
  • 221230Z AUTO 14005KT 070V200 9999 FEW043 22/11 Q1013 BECMG SCT080CB
  • 221200Z AUTO VRB03KT CAVOK 22/12 Q1014 BECMG SCT080CB

TAF TAF LFQQ
Valide du 22 à 12h jusqu'au 23 à 18h UTC


221100Z 2212/2318 VRB02KT CAVOK
BECMG 2212/2215 SCT080CB
TEMPO 2300/2314 27012KT 1200 TSRA BKN060CB
BECMG 2314/2316 27015KT
ATIS : +33 3 20 16 19 54



MET'MAP, la Météo Aéronautique d'un coup d'oeil ! - Copyright ORBIFLY Décembre 2007 - Disclaimer

ORBIFLY MET'MAP TEAM :

Programmation & Développement : Alexandra Zaïnal
Sur une idée originale de : Baudouin d'Aumeries
Soutien technique & logistique : Manuel Goepfert
Assistance : Marc-Olivier Méhu

Contact : metmap@orbifly.com




SOURCES & CREDITS :

   NOAA